createdAt,value
2024-01-18T00:00:14.212Z,23.90
2024-01-18T00:03:40.857Z,23.97
2024-01-18T00:07:04.844Z,22.07
2024-01-18T00:10:29.215Z,21.43
2024-01-18T00:13:53.033Z,21.67
2024-01-18T00:17:17.687Z,22.73
2024-01-18T00:20:42.641Z,24.63
2024-01-18T00:24:07.425Z,22.00
2024-01-18T00:27:31.151Z,21.40
2024-01-18T00:30:54.907Z,20.57
2024-01-18T00:34:18.507Z,21.27
2024-01-18T00:37:43.546Z,21.40
2024-01-18T00:41:07.169Z,25.60
2024-01-18T00:44:30.747Z,22.30
2024-01-18T00:47:54.379Z,23.17
2024-01-18T00:51:18.103Z,22.37
2024-01-18T00:54:43.046Z,21.60
2024-01-18T00:58:06.590Z,20.33
2024-01-18T01:01:30.200Z,22.17
2024-01-18T01:04:53.979Z,21.80
2024-01-18T01:08:17.841Z,24.90
2024-01-18T01:11:42.806Z,23.10
2024-01-18T01:15:08.721Z,20.40
2024-01-18T01:18:32.425Z,30.63
2024-01-18T01:21:56.055Z,24.13
2024-01-18T01:25:19.651Z,21.73
2024-01-18T01:28:44.612Z,26.43
2024-01-18T01:32:08.204Z,26.77
2024-01-18T01:35:31.838Z,24.07
2024-01-18T01:38:55.460Z,27.90
2024-01-18T01:42:19.626Z,22.83
2024-01-18T01:45:44.652Z,21.80
2024-01-18T01:49:09.722Z,27.90
2024-01-18T01:52:35.055Z,23.73
2024-01-18T01:55:58.611Z,23.67
2024-01-18T01:59:22.788Z,24.37
2024-01-18T02:02:48.910Z,24.43
2024-01-18T02:06:12.640Z,22.20
2024-01-18T02:09:36.541Z,24.30
2024-01-18T02:13:01.511Z,25.80
2024-01-18T02:16:25.353Z,23.93
2024-01-18T02:19:50.439Z,23.80
2024-01-18T02:23:14.496Z,25.70
2024-01-18T02:26:39.404Z,27.90
2024-01-18T02:30:03.350Z,25.70
2024-01-18T02:33:27.171Z,25.83
2024-01-18T02:36:51.008Z,23.57
2024-01-18T02:40:15.300Z,24.30
2024-01-18T02:43:40.997Z,22.87
2024-01-18T02:47:04.656Z,25.33
2024-01-18T02:50:28.341Z,24.03
2024-01-18T02:53:51.891Z,24.63
2024-01-18T02:57:15.797Z,25.27
2024-01-18T03:00:40.999Z,27.20
2024-01-18T03:04:05.144Z,24.33
2024-01-18T03:07:30.079Z,32.67
2024-01-18T03:10:53.836Z,26.97
2024-01-18T03:14:17.457Z,24.03
2024-01-18T03:17:42.381Z,24.13
2024-01-18T03:21:07.555Z,26.37
2024-01-18T03:24:31.211Z,30.00
2024-01-18T03:27:54.766Z,25.43
2024-01-18T03:31:18.392Z,25.80
2024-01-18T03:34:43.385Z,24.77
2024-01-18T03:38:07.098Z,25.67
2024-01-18T03:41:31.481Z,24.70
2024-01-18T03:44:55.219Z,25.73
2024-01-18T03:48:18.832Z,31.77
2024-01-18T03:51:44.147Z,25.07
2024-01-18T03:55:08.233Z,25.60
2024-01-18T03:58:31.811Z,30.23
2024-01-18T04:01:57.758Z,27.00
2024-01-18T04:05:21.390Z,24.33
2024-01-18T04:08:46.331Z,27.97
2024-01-18T04:12:10.944Z,26.37
2024-01-18T04:15:34.557Z,31.47
2024-01-18T04:18:58.240Z,26.13
2024-01-18T04:22:24.039Z,27.30
2024-01-18T04:25:52.702Z,24.40
2024-01-18T04:29:16.271Z,24.60
2024-01-18T04:32:39.908Z,28.43
2024-01-18T04:36:03.713Z,25.97
2024-01-18T04:39:28.396Z,30.40
2024-01-18T04:42:53.961Z,24.63
2024-01-18T04:46:17.633Z,27.23
2024-01-18T04:49:41.318Z,28.23
2024-01-18T04:53:05.238Z,24.73
2024-01-18T04:56:29.978Z,24.57
2024-01-18T04:59:55.045Z,28.80
2024-01-18T05:03:18.699Z,28.17
2024-01-18T05:06:42.519Z,26.17
2024-01-18T05:10:09.926Z,37.33
2024-01-18T05:13:33.662Z,26.60
2024-01-18T05:17:04.874Z,25.10
2024-01-18T05:20:28.714Z,24.57
2024-01-18T05:23:52.271Z,29.80
2024-01-18T05:27:15.928Z,26.60
2024-01-18T05:30:39.584Z,26.77
2024-01-18T05:34:04.718Z,27.90
2024-01-18T05:37:28.375Z,26.67
2024-01-18T05:40:51.937Z,28.37
2024-01-18T05:44:15.891Z,27.37
2024-01-18T05:47:40.845Z,28.80
2024-01-18T05:51:06.833Z,32.27
2024-01-18T05:54:30.686Z,28.97
2024-01-18T05:57:54.354Z,27.23
2024-01-18T06:01:18.239Z,29.27
2024-01-18T06:04:42.265Z,27.67
2024-01-18T06:08:07.797Z,32.23
2024-01-18T06:11:31.383Z,35.13
2024-01-18T06:14:55.177Z,27.73
2024-01-18T06:18:18.903Z,32.00
2024-01-18T06:21:43.224Z,28.13
2024-01-18T06:25:08.788Z,29.17
2024-01-18T06:28:32.489Z,28.13
2024-01-18T06:31:56.045Z,28.90
2024-01-18T06:35:19.613Z,28.20
2024-01-18T06:38:43.310Z,29.27
2024-01-18T06:42:09.137Z,28.80
2024-01-18T06:45:32.949Z,28.00
2024-01-18T06:48:58.346Z,30.13
2024-01-18T06:52:22.124Z,32.03
2024-01-18T06:55:45.831Z,31.43
2024-01-18T06:59:10.728Z,29.20
2024-01-18T07:02:34.661Z,29.87
2024-01-18T07:05:58.426Z,26.63
2024-01-18T07:09:22.005Z,29.10
2024-01-18T07:12:45.907Z,31.30
2024-01-18T07:16:10.938Z,28.63
2024-01-18T07:19:35.166Z,28.63
2024-01-18T07:22:59.507Z,29.10
2024-01-18T07:26:23.612Z,29.33
2024-01-18T07:29:50.225Z,27.23
2024-01-18T07:33:15.309Z,30.63
2024-01-18T07:36:38.989Z,29.17
2024-01-18T07:40:02.719Z,28.40
2024-01-18T07:43:26.313Z,32.43
2024-01-18T07:46:50.213Z,28.30
2024-01-18T07:50:25.190Z,32.40
2024-01-18T07:53:57.953Z,28.13
2024-01-18T07:57:21.671Z,31.83
2024-01-18T08:00:45.287Z,33.67
2024-01-18T08:04:09.055Z,33.40
2024-01-18T08:07:34.077Z,37.90
2024-01-18T08:10:57.749Z,33.87
2024-01-18T08:14:21.582Z,35.87
2024-01-18T08:17:45.424Z,35.40
2024-01-18T08:21:10.690Z,34.43
2024-01-18T08:24:37.899Z,35.00
2024-01-18T08:28:01.632Z,31.60
2024-01-18T08:31:25.181Z,32.33
2024-01-18T08:34:48.801Z,31.07
2024-01-18T08:38:12.397Z,28.57
2024-01-18T08:41:37.316Z,25.17
2024-01-18T08:45:00.878Z,23.60
2024-01-18T08:48:24.538Z,31.30
2024-01-18T08:51:48.124Z,26.17
2024-01-18T08:55:12.667Z,23.60
2024-01-18T08:58:38.257Z,24.67
2024-01-18T09:02:06.937Z,25.20
2024-01-18T09:05:34.354Z,23.70
2024-01-18T09:08:57.962Z,23.73
2024-01-18T09:12:21.727Z,22.17
2024-01-18T09:15:46.663Z,22.63
2024-01-18T09:19:14.683Z,23.97
2024-01-18T09:22:38.962Z,25.03
2024-01-18T09:26:03.146Z,25.23
2024-01-18T09:29:27.237Z,25.57
2024-01-18T09:32:55.379Z,30.83
2024-01-18T09:36:20.175Z,27.73
2024-01-18T09:39:45.445Z,24.80
2024-01-18T09:43:11.568Z,24.60
2024-01-18T09:46:36.309Z,23.07
2024-01-18T09:50:01.993Z,23.10
2024-01-18T09:53:25.757Z,24.33
2024-01-18T09:56:54.090Z,23.10
2024-01-18T10:00:20.551Z,23.33
2024-01-18T10:03:44.670Z,25.60
2024-01-18T10:07:10.567Z,25.30
2024-01-18T10:10:34.562Z,24.33
2024-01-18T10:14:00.375Z,23.77
2024-01-18T10:17:26.814Z,23.23
2024-01-18T10:20:51.792Z,23.37
2024-01-18T10:24:18.779Z,23.47
2024-01-18T10:27:43.206Z,23.97
2024-01-18T10:31:06.888Z,22.23
2024-01-18T10:34:30.611Z,18.20
2024-01-18T10:38:05.430Z,13.50
2024-01-18T10:41:31.280Z,12.80
2024-01-18T10:44:54.939Z,12.50
2024-01-18T10:48:20.571Z,10.60
2024-01-18T10:51:44.259Z,10.60
2024-01-18T10:55:10.066Z,11.43
2024-01-18T10:58:35.289Z,11.10
2024-01-18T11:02:00.519Z,22.90
2024-01-18T11:05:25.528Z,26.70
2024-01-18T11:08:50.597Z,20.43
2024-01-18T11:12:15.529Z,16.77
2024-01-18T11:15:42.817Z,14.07
2024-01-18T11:19:06.987Z,15.00
2024-01-18T11:22:31.699Z,16.00
2024-01-18T11:25:56.054Z,18.63
2024-01-18T11:29:20.689Z,16.30
2024-01-18T11:32:45.778Z,21.27
2024-01-18T11:36:11.564Z,20.30
2024-01-18T11:39:56.924Z,21.70
2024-01-18T11:43:20.544Z,25.43
2024-01-18T11:46:46.979Z,20.97
2024-01-18T11:50:13.081Z,20.07
2024-01-18T11:53:36.845Z,24.50
2024-01-18T11:57:04.198Z,27.30
2024-01-18T12:00:27.809Z,22.40
2024-01-18T12:03:52.320Z,24.73
2024-01-18T12:07:17.925Z,26.03
2024-01-18T12:10:41.817Z,23.07
2024-01-18T12:14:05.475Z,20.27
2024-01-18T12:17:29.649Z,28.37
2024-01-18T12:20:53.475Z,27.73
2024-01-18T12:24:18.458Z,24.97
2024-01-18T12:27:42.725Z,21.50
2024-01-18T12:31:06.746Z,26.77
2024-01-18T12:34:33.936Z,14.27
2024-01-18T12:37:57.768Z,15.90
2024-01-18T12:41:24.410Z,15.43
2024-01-18T12:44:52.364Z,15.87
2024-01-18T12:48:17.228Z,15.50
2024-01-18T12:51:40.962Z,14.50
2024-01-18T12:55:05.082Z,15.27
2024-01-18T12:58:30.028Z,14.47
2024-01-18T13:01:54.170Z,12.23
2024-01-18T13:05:18.321Z,17.60
2024-01-18T13:08:42.003Z,12.00
2024-01-18T13:12:06.848Z,10.20
2024-01-18T13:15:32.931Z,10.37
2024-01-18T13:19:01.903Z,13.60
2024-01-18T13:22:26.158Z,8.70
2024-01-18T13:25:50.085Z,9.30
2024-01-18T13:29:14.258Z,11.63
2024-01-18T13:32:39.358Z,8.30
2024-01-18T13:36:03.385Z,8.30
2024-01-18T13:39:27.001Z,7.00
2024-01-18T13:42:50.900Z,12.00
2024-01-18T13:46:15.529Z,12.77
2024-01-18T13:49:40.867Z,11.70
2024-01-18T13:53:04.953Z,11.60
2024-01-18T13:56:28.720Z,9.77
2024-01-18T13:59:52.349Z,11.37
2024-01-18T14:03:16.259Z,8.43
2024-01-18T14:06:41.763Z,14.27
2024-01-18T14:10:06.342Z,9.73
2024-01-18T14:13:29.966Z,9.00
2024-01-18T14:16:53.725Z,19.53
2024-01-18T14:20:17.572Z,10.20
2024-01-18T14:23:42.646Z,10.07
2024-01-18T14:27:06.550Z,10.60
2024-01-18T14:30:30.230Z,6.97
2024-01-18T14:33:53.914Z,9.27
2024-01-18T14:37:17.718Z,8.03
2024-01-18T14:40:45.609Z,9.37
2024-01-18T14:44:11.150Z,8.93
2024-01-18T14:47:35.670Z,10.20
2024-01-18T14:50:59.324Z,9.07
2024-01-18T14:54:22.968Z,9.70
2024-01-18T14:57:48.313Z,8.37
2024-01-18T15:01:12.179Z,10.60
2024-01-18T15:04:36.169Z,8.30
2024-01-18T15:08:00.157Z,8.63
2024-01-18T15:11:23.936Z,9.17
2024-01-18T15:14:50.611Z,7.43
2024-01-18T15:18:14.289Z,7.13
2024-01-18T15:21:38.106Z,10.47
2024-01-18T15:25:01.874Z,15.13
2024-01-18T15:28:26.190Z,8.40
2024-01-18T15:31:51.259Z,7.97
2024-01-18T15:35:15.071Z,9.27
2024-01-18T15:38:38.702Z,9.57
2024-01-18T15:42:02.446Z,7.87
2024-01-18T15:45:26.181Z,9.40
2024-01-18T15:48:54.712Z,11.10
2024-01-18T15:52:18.447Z,10.57
2024-01-18T15:55:42.009Z,13.13
2024-01-18T15:59:05.545Z,11.53
2024-01-18T16:02:29.677Z,10.23
2024-01-18T16:05:54.729Z,10.47
2024-01-18T16:09:18.538Z,9.63
2024-01-18T16:12:42.766Z,10.07
2024-01-18T16:16:06.636Z,8.60
2024-01-18T16:19:30.600Z,6.70
2024-01-18T16:22:56.044Z,9.10
2024-01-18T16:26:19.703Z,7.40
2024-01-18T16:29:54.535Z,10.23
2024-01-18T16:33:26.518Z,8.10
2024-01-18T16:36:50.245Z,9.57
2024-01-18T16:40:15.259Z,11.03
2024-01-18T16:43:39.219Z,7.90
2024-01-18T16:47:03.861Z,14.40
2024-01-18T16:50:28.551Z,9.63
2024-01-18T16:53:52.201Z,14.13
2024-01-18T16:57:23.033Z,12.40
2024-01-18T17:00:53.446Z,7.80
2024-01-18T17:04:17.026Z,10.13
2024-01-18T17:07:40.735Z,8.63
2024-01-18T17:11:05.529Z,9.70
2024-01-18T17:14:32.286Z,11.50
2024-01-18T17:17:56.293Z,11.67
2024-01-18T17:21:21.243Z,8.73
2024-01-18T17:24:44.988Z,9.70
2024-01-18T17:28:08.660Z,8.83
2024-01-18T17:31:33.585Z,9.80
2024-01-18T17:34:57.653Z,9.77
2024-01-18T17:38:21.361Z,8.23
2024-01-18T17:41:46.613Z,11.20
2024-01-18T17:45:11.269Z,10.17
2024-01-18T17:48:37.647Z,12.77
2024-01-18T17:52:01.516Z,16.70
2024-01-18T17:55:25.095Z,15.03
2024-01-18T17:58:48.669Z,13.43
2024-01-18T18:02:13.664Z,13.50
2024-01-18T18:05:38.881Z,14.40
2024-01-18T18:09:04.154Z,8.17
2024-01-18T18:12:28.112Z,16.40
2024-01-18T18:15:51.739Z,25.50
2024-01-18T18:19:18.079Z,15.50
2024-01-18T18:22:43.130Z,19.43
2024-01-18T18:26:08.751Z,17.87
2024-01-18T18:29:33.182Z,18.90
2024-01-18T18:32:56.774Z,80.33
2024-01-18T18:36:20.417Z,10.70
2024-01-18T18:39:45.858Z,11.77
2024-01-18T18:43:09.554Z,10.63
2024-01-18T18:46:33.234Z,10.87
2024-01-18T18:49:56.936Z,12.17
2024-01-18T18:53:20.521Z,18.57
2024-01-18T18:56:45.827Z,9.83
2024-01-18T19:00:10.298Z,16.30
2024-01-18T19:03:33.902Z,11.70
2024-01-18T19:06:58.569Z,9.80
2024-01-18T19:10:22.718Z,12.80
2024-01-18T19:13:55.042Z,10.80
2024-01-18T19:17:20.144Z,10.07
2024-01-18T19:20:44.220Z,10.57
2024-01-18T19:24:08.653Z,13.93
2024-01-18T19:27:32.853Z,14.60
2024-01-18T19:30:58.010Z,12.53
2024-01-18T19:34:24.431Z,17.57
2024-01-18T19:37:50.456Z,16.13
2024-01-18T19:41:14.116Z,10.70
2024-01-18T19:44:38.657Z,14.00
2024-01-18T19:48:04.634Z,13.27
2024-01-18T19:51:29.289Z,13.90
2024-01-18T19:54:53.539Z,12.70
2024-01-18T19:58:17.669Z,17.70
2024-01-18T20:01:41.709Z,15.87
2024-01-18T20:05:09.675Z,18.10
2024-01-18T20:08:34.483Z,13.17
2024-01-18T20:12:02.685Z,11.83
2024-01-18T20:15:27.102Z,13.20
2024-01-18T20:18:52.439Z,11.43
2024-01-18T20:22:18.411Z,12.60
2024-01-18T20:25:42.355Z,14.97
2024-01-18T20:29:10.315Z,15.47
2024-01-18T20:32:37.429Z,12.77
2024-01-18T20:36:02.010Z,12.40
2024-01-18T20:39:33.496Z,13.97
2024-01-18T20:43:04.363Z,14.80
2024-01-18T20:46:33.291Z,13.97
2024-01-18T20:50:01.966Z,14.90
2024-01-18T20:53:32.433Z,17.17
2024-01-18T20:56:58.087Z,12.23
2024-01-18T21:00:28.609Z,16.60
2024-01-18T21:03:56.619Z,16.77
2024-01-18T21:07:21.585Z,15.20
2024-01-18T21:10:56.220Z,17.40
2024-01-18T21:14:21.377Z,17.20
2024-01-18T21:17:45.973Z,13.90
2024-01-18T21:21:10.879Z,22.43
2024-01-18T21:24:39.768Z,17.53
2024-01-18T21:28:10.173Z,14.30
2024-01-18T21:31:36.768Z,18.97
2024-01-18T21:35:05.872Z,15.83
2024-01-18T21:38:30.555Z,18.83
2024-01-18T21:41:56.047Z,25.90
2024-01-18T21:45:19.704Z,17.40
2024-01-18T21:48:46.915Z,16.93
2024-01-18T21:52:10.724Z,20.43
2024-01-18T21:55:36.720Z,16.57
2024-01-18T21:59:03.811Z,18.53
2024-01-18T22:02:31.597Z,16.00
2024-01-18T22:05:57.311Z,22.37
2024-01-18T22:09:30.710Z,12.73
2024-01-18T22:12:57.761Z,18.93
2024-01-18T22:16:24.693Z,12.20
2024-01-18T22:19:58.556Z,18.67
2024-01-18T22:23:31.816Z,17.13
2024-01-18T22:26:56.119Z,14.80
2024-01-18T22:30:19.755Z,16.93
2024-01-18T22:33:46.079Z,16.87
2024-01-18T22:37:10.107Z,12.70
2024-01-18T22:40:36.642Z,14.30
2024-01-18T22:44:03.288Z,17.80
2024-01-18T22:47:27.632Z,16.17
2024-01-18T22:50:51.394Z,21.30
2024-01-18T22:54:15.442Z,16.87
2024-01-18T22:57:40.813Z,16.43
2024-01-18T23:01:06.881Z,15.17
2024-01-18T23:04:33.730Z,15.60
2024-01-18T23:07:57.340Z,15.93
2024-01-18T23:11:21.032Z,15.97
2024-01-18T23:14:45.977Z,16.20
2024-01-18T23:18:09.631Z,13.20
2024-01-18T23:21:33.332Z,19.57
2024-01-18T23:24:56.949Z,11.67
2024-01-18T23:28:20.500Z,11.17
2024-01-18T23:31:45.403Z,15.97
2024-01-18T23:35:09.344Z,13.60
2024-01-18T23:38:33.439Z,10.83
2024-01-18T23:41:59.666Z,12.50
2024-01-18T23:45:24.123Z,15.60
2024-01-18T23:48:49.383Z,21.57
2024-01-18T23:52:13.058Z,13.70
2024-01-18T23:55:36.628Z,12.47
2024-01-18T23:59:00.424Z,13.40
